createdAt,value
2023-05-14T00:01:21.363Z,4.30
2023-05-14T00:03:49.164Z,4.82
2023-05-14T00:06:17.003Z,4.93
2023-05-14T00:08:44.664Z,4.97
2023-05-14T00:11:12.285Z,5.28
2023-05-14T00:13:39.905Z,5.32
2023-05-14T00:16:09.007Z,4.93
2023-05-14T00:18:36.720Z,5.13
2023-05-14T00:21:04.571Z,5.10
2023-05-14T00:23:32.161Z,5.00
2023-05-14T00:25:59.872Z,5.10
2023-05-14T00:28:27.664Z,4.65
2023-05-14T00:30:55.995Z,4.43
2023-05-14T00:33:25.058Z,4.97
2023-05-14T00:35:52.709Z,5.32
2023-05-14T00:38:20.383Z,5.13
2023-05-14T00:40:51.756Z,4.97
2023-05-14T00:43:20.134Z,4.95
2023-05-14T00:45:49.212Z,5.22
2023-05-14T00:48:16.960Z,5.15
2023-05-14T00:50:46.023Z,5.07
2023-05-14T00:53:14.808Z,4.95
2023-05-14T00:55:43.513Z,5.53
2023-05-14T00:58:13.072Z,5.00
2023-05-14T01:49:43.236Z,5.70
2023-05-14T01:52:10.970Z,5.07
2023-05-14T01:54:38.694Z,5.70
2023-05-14T01:57:06.557Z,5.28
2023-05-14T01:59:34.216Z,5.28
2023-05-14T02:02:01.843Z,5.40
2023-05-14T02:04:29.458Z,5.35
2023-05-14T02:06:58.462Z,4.97
2023-05-14T02:09:26.116Z,4.50
2023-05-14T02:11:53.681Z,4.85
2023-05-14T02:14:21.249Z,5.13
2023-05-14T02:16:48.830Z,5.10
2023-05-14T02:19:16.498Z,4.93
2023-05-14T02:21:44.254Z,4.85
2023-05-14T02:24:13.182Z,5.68
2023-05-14T02:26:40.736Z,5.07
2023-05-14T02:29:08.380Z,4.80
2023-05-14T02:31:36.045Z,4.80
2023-05-14T02:34:04.318Z,4.75
2023-05-14T02:36:32.260Z,4.50
2023-05-14T02:39:00.908Z,4.75
2023-05-14T02:41:30.050Z,4.40
2023-05-14T02:43:57.686Z,4.88
2023-05-14T02:46:25.765Z,4.50
2023-05-14T02:48:53.473Z,5.32
2023-05-14T02:51:21.369Z,5.00
2023-05-14T02:53:48.995Z,4.68
2023-05-14T02:56:16.699Z,5.10
2023-05-14T02:58:45.753Z,4.80
2023-05-14T03:01:13.459Z,4.85
2023-05-14T03:03:41.528Z,5.22
2023-05-14T03:06:09.744Z,4.78
2023-05-14T03:08:37.447Z,5.38
2023-05-14T03:11:05.196Z,4.63
2023-05-14T03:13:32.813Z,5.32
2023-05-14T03:16:01.822Z,5.18
2023-05-14T03:18:30.707Z,4.95
2023-05-14T03:20:58.416Z,5.03
2023-05-14T03:23:26.115Z,5.25
2023-05-14T03:25:53.716Z,5.03
2023-05-14T03:28:21.424Z,4.82
2023-05-14T03:30:49.123Z,4.85
2023-05-14T03:33:18.110Z,5.15
2023-05-14T03:35:45.769Z,5.03
2023-05-14T03:38:13.338Z,4.78
2023-05-14T03:40:41.071Z,4.90
2023-05-14T03:43:08.662Z,4.95
2023-05-14T03:45:36.260Z,5.03
2023-05-14T03:48:03.944Z,4.80
2023-05-14T03:50:33.043Z,5.00
2023-05-14T03:53:01.030Z,4.88
2023-05-14T03:55:28.706Z,4.90
2023-05-14T03:57:56.342Z,4.70
2023-05-14T04:00:24.484Z,4.85
2023-05-14T04:02:52.454Z,5.00
2023-05-14T04:05:20.146Z,4.40
2023-05-14T04:07:49.120Z,5.15
2023-05-14T04:10:16.806Z,4.88
2023-05-14T04:12:44.577Z,5.05
2023-05-14T04:15:13.067Z,5.00
2023-05-14T04:17:40.667Z,4.50
2023-05-14T04:20:09.616Z,5.05
2023-05-14T04:22:37.306Z,4.93
2023-05-14T04:25:07.194Z,4.70
2023-05-14T04:27:35.305Z,4.97
2023-05-14T04:30:02.993Z,5.10
2023-05-14T04:32:31.181Z,4.90
2023-05-14T04:34:58.801Z,5.00
2023-05-14T04:37:26.903Z,5.45
2023-05-14T04:39:54.494Z,4.85
2023-05-14T04:42:23.546Z,5.35
2023-05-14T04:44:51.130Z,5.63
2023-05-14T04:47:18.836Z,4.93
2023-05-14T04:49:46.467Z,5.15
2023-05-14T04:52:14.028Z,5.00
2023-05-14T04:54:41.889Z,4.65
2023-05-14T04:57:09.640Z,5.45
2023-05-14T04:59:38.644Z,4.78
2023-05-14T05:02:06.445Z,4.95
2023-05-14T05:04:51.851Z,5.20
2023-05-14T05:07:19.497Z,5.53
2023-05-14T05:09:47.072Z,5.95
2023-05-14T05:12:14.880Z,5.35
2023-05-14T05:14:43.845Z,5.82
2023-05-14T05:17:11.736Z,6.10
2023-05-14T05:19:43.662Z,6.80
2023-05-14T05:24:39.469Z,6.40
2023-05-14T05:27:07.095Z,6.53
2023-05-14T05:29:36.160Z,7.15
2023-05-14T05:32:06.009Z,7.18
2023-05-14T05:34:33.922Z,7.10
2023-05-14T05:37:01.578Z,7.88
2023-05-14T05:39:34.638Z,6.95
2023-05-14T05:42:02.939Z,6.80
2023-05-14T05:44:30.690Z,7.50
2023-05-14T05:46:58.644Z,7.88
2023-05-14T05:49:27.718Z,7.05
2023-05-14T05:51:55.382Z,7.47
2023-05-14T05:54:24.650Z,7.47
2023-05-14T05:56:52.317Z,7.03
2023-05-14T05:59:19.951Z,7.35
2023-05-14T06:01:48.202Z,6.97
2023-05-14T06:04:15.886Z,7.10
2023-05-14T06:06:50.764Z,5.80
2023-05-14T06:09:18.625Z,5.45
2023-05-14T06:11:46.229Z,5.55
2023-05-14T06:14:13.876Z,5.60
2023-05-14T06:16:41.548Z,4.72
2023-05-14T06:19:10.220Z,5.30
2023-05-14T06:21:38.129Z,5.30
2023-05-14T06:24:09.060Z,4.85
2023-05-14T06:26:36.814Z,5.90
2023-05-14T06:29:04.480Z,5.22
2023-05-14T06:31:32.141Z,5.80
2023-05-14T06:34:00.042Z,5.25
2023-05-14T06:36:27.814Z,5.38
2023-05-14T06:38:55.486Z,5.40
2023-05-14T06:41:24.477Z,5.05
2023-05-14T06:43:52.102Z,5.25
2023-05-14T06:46:19.687Z,5.97
2023-05-14T06:48:47.380Z,5.60
2023-05-14T06:51:15.001Z,5.35
2023-05-14T06:53:42.640Z,6.05
2023-05-14T06:56:10.302Z,5.20
2023-05-14T06:58:39.297Z,5.47
2023-05-14T07:01:07.491Z,5.45
2023-05-14T07:03:35.157Z,5.07
2023-05-14T07:06:02.811Z,5.18
2023-05-14T07:08:30.430Z,5.07
2023-05-14T07:10:58.317Z,5.57
2023-05-14T07:13:28.773Z,5.40
2023-05-14T07:15:57.933Z,4.88
2023-05-14T07:18:25.732Z,5.45
2023-05-14T07:20:53.456Z,5.38
2023-05-14T07:23:21.425Z,5.47
2023-05-14T07:25:50.895Z,4.85
2023-05-14T07:28:18.597Z,4.93
2023-05-14T07:30:46.243Z,5.40
2023-05-14T07:33:15.311Z,5.15
2023-05-14T07:35:43.334Z,5.78
2023-05-14T07:38:10.986Z,5.30
2023-05-14T07:40:38.593Z,5.65
2023-05-14T07:43:06.209Z,5.53
2023-05-14T07:45:34.012Z,5.20
2023-05-14T07:48:01.889Z,5.45
2023-05-14T07:50:31.323Z,5.40
2023-05-14T07:52:58.958Z,4.85
2023-05-14T07:55:26.570Z,5.15
2023-05-14T07:57:54.167Z,5.13
2023-05-14T08:00:22.063Z,4.72
2023-05-14T08:02:50.372Z,4.97
2023-05-14T08:05:19.941Z,5.50
2023-05-14T08:07:48.977Z,5.30
2023-05-14T08:10:16.611Z,5.40
2023-05-14T08:12:44.223Z,5.18
2023-05-14T08:15:12.032Z,5.10
2023-05-14T08:17:40.517Z,5.25
2023-05-14T08:20:09.849Z,4.97
2023-05-14T08:22:37.610Z,4.78
2023-05-14T08:25:07.878Z,4.93
2023-05-14T08:27:35.482Z,4.72
2023-05-14T08:30:03.183Z,5.05
2023-05-14T08:32:30.864Z,4.95
2023-05-14T08:34:58.504Z,5.03
2023-05-14T08:37:26.154Z,4.60
2023-05-14T08:39:53.760Z,4.68
2023-05-14T08:42:25.586Z,4.45
2023-05-14T08:44:57.844Z,4.25
2023-05-14T08:49:58.025Z,4.88
2023-05-14T08:52:25.695Z,4.70
2023-05-14T08:54:54.614Z,4.22
2023-05-14T08:57:26.601Z,4.15
2023-05-14T08:59:54.801Z,4.57
2023-05-14T09:02:25.765Z,4.38
2023-05-14T09:04:57.064Z,4.07
2023-05-14T09:07:25.175Z,3.63
2023-05-14T09:09:53.235Z,3.40
2023-05-14T09:12:21.556Z,3.67
2023-05-14T09:14:51.571Z,3.55
2023-05-14T09:17:20.268Z,3.00
2023-05-14T09:19:49.204Z,3.22
2023-05-14T09:22:18.392Z,4.05
2023-05-14T09:24:46.255Z,3.60
2023-05-14T09:27:20.360Z,3.40
2023-05-14T09:29:50.023Z,2.80
2023-05-14T09:32:17.667Z,3.20
2023-05-14T09:34:45.273Z,3.78
2023-05-14T09:37:12.858Z,3.20
2023-05-14T09:39:40.859Z,3.45
2023-05-14T09:42:08.646Z,3.35
2023-05-14T09:44:38.060Z,3.17
2023-05-14T09:47:07.361Z,3.38
2023-05-14T09:49:35.231Z,3.60
2023-05-14T09:52:03.772Z,3.22
2023-05-14T09:54:33.123Z,3.08
2023-05-14T09:57:00.814Z,3.47
2023-05-14T09:59:28.399Z,3.30
2023-05-14T10:01:56.494Z,2.60
2023-05-14T10:04:25.886Z,2.60
2023-05-14T10:06:55.188Z,2.88
2023-05-14T10:09:26.382Z,2.70
2023-05-14T10:11:59.408Z,2.60
2023-05-14T10:14:34.468Z,3.13
2023-05-14T10:17:04.118Z,2.95
2023-05-14T10:19:35.104Z,2.88
2023-05-14T10:22:05.970Z,2.50
2023-05-14T10:24:34.588Z,2.50
2023-05-14T10:27:02.309Z,2.67
2023-05-14T10:29:34.354Z,2.72
2023-05-14T10:32:06.269Z,2.40
2023-05-14T10:34:42.446Z,2.20
2023-05-14T10:37:11.667Z,2.30
2023-05-14T10:39:43.657Z,2.00
2023-05-14T10:42:12.265Z,2.63
2023-05-14T10:44:50.163Z,2.50
2023-05-14T10:47:18.579Z,2.50
2023-05-14T10:49:53.023Z,2.60
2023-05-14T10:52:21.070Z,2.40
2023-05-14T10:54:52.813Z,2.90
2023-05-14T10:57:21.626Z,3.05
2023-05-14T10:59:53.204Z,2.75
2023-05-14T11:02:23.009Z,2.78
2023-05-14T11:04:57.205Z,2.90
2023-05-14T11:07:28.659Z,3.00
2023-05-14T11:10:02.128Z,3.08
2023-05-14T11:12:30.207Z,3.30
2023-05-14T11:14:59.222Z,3.35
2023-05-14T11:17:27.957Z,3.00
2023-05-14T11:19:57.540Z,3.08
2023-05-14T11:22:25.772Z,2.90
2023-05-14T11:24:53.599Z,3.20
2023-05-14T11:27:23.521Z,2.50
2023-05-14T11:29:51.957Z,3.03
2023-05-14T11:32:20.902Z,3.30
2023-05-14T11:34:48.982Z,3.50
2023-05-14T11:37:18.022Z,2.95
2023-05-14T11:39:50.187Z,3.20
2023-05-14T11:42:19.555Z,3.08
2023-05-14T11:44:48.984Z,3.55
2023-05-14T11:47:18.303Z,3.60
2023-05-14T11:49:49.811Z,3.30
2023-05-14T11:52:21.762Z,3.63
2023-05-14T11:54:50.859Z,3.35
2023-05-14T11:57:21.477Z,3.33
2023-05-14T11:59:49.596Z,2.90
2023-05-14T12:02:20.088Z,3.22
2023-05-14T12:04:52.501Z,3.10
2023-05-14T12:07:22.922Z,3.13
2023-05-14T12:09:50.870Z,3.08
2023-05-14T12:12:20.218Z,3.00
2023-05-14T12:14:48.189Z,2.90
2023-05-14T12:17:16.868Z,3.05
2023-05-14T12:19:45.938Z,3.60
2023-05-14T12:22:16.352Z,3.38
2023-05-14T12:24:54.067Z,3.35
2023-05-14T12:27:23.289Z,3.22
2023-05-14T12:29:53.334Z,3.20
2023-05-14T12:32:20.994Z,3.30
2023-05-14T12:34:48.648Z,3.17
2023-05-14T12:37:16.240Z,3.28
2023-05-14T12:39:45.295Z,3.67
2023-05-14T12:42:12.965Z,3.72
2023-05-14T12:44:40.548Z,3.58
2023-05-14T12:47:08.361Z,4.20
2023-05-14T12:49:36.137Z,3.72
2023-05-14T12:52:19.812Z,3.97
2023-05-14T12:54:51.571Z,4.30
2023-05-14T12:57:19.246Z,3.72
2023-05-14T12:59:46.930Z,3.80
2023-05-14T13:02:16.712Z,3.70
2023-05-14T13:04:45.149Z,3.40
2023-05-14T13:07:13.158Z,3.80
2023-05-14T13:09:40.870Z,3.60
2023-05-14T13:12:10.634Z,3.63
2023-05-14T13:14:38.250Z,3.45
2023-05-14T13:17:08.118Z,3.97
2023-05-14T13:19:35.993Z,3.25
2023-05-14T13:22:03.636Z,4.30
2023-05-14T13:24:31.268Z,4.50
2023-05-14T13:26:58.959Z,4.25
2023-05-14T13:29:29.310Z,3.70
2023-05-14T13:31:56.961Z,4.00
2023-05-14T13:34:24.609Z,4.30
2023-05-14T13:36:52.497Z,3.72
2023-05-14T13:39:41.525Z,4.00
2023-05-14T13:42:09.203Z,4.10
2023-05-14T13:44:38.252Z,3.08
2023-05-14T13:47:06.443Z,3.42
2023-05-14T13:49:34.269Z,3.40
2023-05-14T13:52:02.542Z,3.65
2023-05-14T13:54:30.313Z,3.40
2023-05-14T13:57:35.165Z,3.67
2023-05-14T14:00:06.698Z,3.40
2023-05-14T14:02:34.479Z,3.40
2023-05-14T15:42:44.746Z,3.22
2023-05-14T15:45:13.533Z,3.17
2023-05-14T15:47:41.701Z,3.20
2023-05-14T15:50:10.096Z,3.17
2023-05-14T15:52:42.210Z,3.15
2023-05-14T15:55:11.066Z,2.88
2023-05-14T15:57:39.008Z,3.22
2023-05-14T16:00:11.261Z,3.33
2023-05-14T16:05:07.902Z,3.50
2023-05-14T16:07:35.913Z,3.38
2023-05-14T16:10:03.736Z,3.17
2023-05-14T16:12:31.619Z,2.90
2023-05-14T16:15:03.002Z,2.83
2023-05-14T16:17:32.878Z,3.10
2023-05-14T16:20:00.898Z,3.00
2023-05-14T16:22:32.632Z,3.30
2023-05-14T16:25:02.526Z,3.03
2023-05-14T16:27:31.097Z,3.30
2023-05-14T16:29:58.730Z,3.45
2023-05-14T16:32:26.530Z,3.22
2023-05-14T16:34:56.464Z,3.20
2023-05-14T16:37:24.598Z,2.90
2023-05-14T16:39:52.599Z,2.97
2023-05-14T16:42:21.293Z,3.20
2023-05-14T16:44:49.087Z,3.35
2023-05-14T16:47:16.756Z,3.38
2023-05-14T16:49:44.718Z,3.38
2023-05-14T16:52:13.881Z,3.40
2023-05-14T16:54:41.470Z,3.50
2023-05-14T16:57:09.210Z,3.70
2023-05-14T16:59:37.047Z,3.40
2023-05-14T17:02:04.896Z,3.63
2023-05-14T17:04:33.408Z,3.75
2023-05-14T17:07:01.941Z,3.40
2023-05-14T17:09:34.348Z,3.55
2023-05-14T17:12:02.026Z,3.60
2023-05-14T17:14:29.681Z,3.45
2023-05-14T17:16:57.673Z,3.50
2023-05-14T17:19:25.280Z,3.30
2023-05-14T17:21:52.920Z,3.05
2023-05-14T17:24:20.704Z,3.20
2023-05-14T17:26:49.731Z,3.55
2023-05-14T17:29:17.516Z,3.58
2023-05-14T17:31:48.136Z,3.30
2023-05-14T17:34:17.667Z,2.80
2023-05-14T17:36:45.394Z,3.05
2023-05-14T17:39:13.249Z,3.17
2023-05-14T17:41:41.983Z,3.10
2023-05-14T17:44:12.896Z,3.08
2023-05-14T17:46:41.622Z,2.85
2023-05-14T17:49:09.425Z,2.90
2023-05-14T17:51:37.120Z,3.05
2023-05-14T17:54:05.154Z,3.00
2023-05-14T17:56:32.965Z,3.00
2023-05-14T17:59:01.090Z,3.20
2023-05-14T18:01:30.128Z,3.20
2023-05-14T18:03:57.854Z,3.10
2023-05-14T18:06:25.615Z,3.20
2023-05-14T18:08:53.267Z,3.30
2023-05-14T18:11:21.352Z,3.25
2023-05-14T18:13:48.980Z,3.20
2023-05-14T18:16:16.737Z,3.35
2023-05-14T18:18:45.865Z,3.03
2023-05-14T18:21:13.561Z,3.30
2023-05-14T18:23:41.329Z,3.20
2023-05-14T18:26:09.051Z,3.47
2023-05-14T18:28:38.044Z,3.35
2023-05-14T18:31:07.566Z,3.80
2023-05-14T18:33:35.321Z,3.20
2023-05-14T18:36:04.897Z,3.30
2023-05-14T18:38:32.594Z,3.67
2023-05-14T18:41:00.290Z,3.70
2023-05-14T18:43:28.084Z,3.53
2023-05-14T18:45:55.753Z,3.53
2023-05-14T18:48:23.488Z,3.55
2023-05-14T18:50:51.389Z,3.58
2023-05-14T18:53:23.805Z,3.10
2023-05-14T18:58:19.212Z,3.38
2023-05-14T19:00:47.411Z,3.67
2023-05-14T19:03:15.311Z,3.90
2023-05-14T19:05:43.039Z,3.55
2023-05-14T19:08:10.718Z,3.92
2023-05-14T19:10:39.778Z,3.88
2023-05-14T19:13:07.491Z,4.10
2023-05-14T19:15:35.331Z,4.10
2023-05-14T19:18:03.201Z,4.20
2023-05-14T19:20:30.954Z,3.38
2023-05-14T19:22:58.641Z,3.70
2023-05-14T19:25:26.952Z,3.72
2023-05-14T19:27:57.073Z,4.20
2023-05-14T19:30:24.939Z,4.47
2023-05-14T19:32:53.256Z,3.78
2023-05-14T19:35:21.021Z,3.92
2023-05-14T19:37:48.781Z,3.72
2023-05-14T19:40:16.701Z,4.30
2023-05-14T19:42:44.583Z,4.72
2023-05-14T19:45:14.080Z,4.50
2023-05-14T19:47:42.946Z,4.60
2023-05-14T19:50:11.340Z,4.40
2023-05-14T19:52:39.799Z,4.78
2023-05-14T19:55:08.077Z,4.68
2023-05-14T19:57:35.768Z,4.40
2023-05-14T20:00:04.238Z,4.38
2023-05-14T20:02:34.149Z,3.88
2023-05-14T20:05:09.479Z,4.38
2023-05-14T20:07:59.703Z,4.63
2023-05-14T20:14:14.648Z,4.72
2023-05-14T20:17:26.110Z,4.43
2023-05-14T22:46:48.137Z,4.07
2023-05-14T22:49:16.022Z,4.38
2023-05-14T22:51:43.768Z,4.05
2023-05-14T22:54:11.824Z,4.50
2023-05-14T22:56:39.631Z,4.63
2023-05-14T22:59:07.261Z,3.97
2023-05-14T23:01:34.930Z,4.35
2023-05-14T23:04:04.036Z,4.03
2023-05-14T23:06:31.827Z,4.00
2023-05-14T23:08:59.695Z,4.03
2023-05-14T23:11:28.078Z,4.10
2023-05-14T23:13:55.781Z,4.25
2023-05-14T23:16:23.523Z,4.60
2023-05-14T23:18:51.346Z,3.92
2023-05-14T23:21:20.507Z,4.30
2023-05-14T23:23:48.593Z,4.20
2023-05-14T23:26:16.432Z,3.63
2023-05-14T23:28:44.150Z,4.00
2023-05-14T23:31:11.776Z,4.35
2023-05-14T23:33:39.922Z,4.05
2023-05-14T23:36:08.788Z,3.95
2023-05-14T23:38:38.079Z,4.10
2023-05-14T23:41:05.864Z,4.13
2023-05-14T23:43:33.824Z,4.00
2023-05-14T23:46:01.677Z,4.15
2023-05-14T23:48:29.421Z,3.83
2023-05-14T23:50:57.208Z,3.72
2023-05-14T23:53:24.896Z,4.13
2023-05-14T23:55:54.013Z,4.18
2023-05-14T23:58:21.732Z,3.88
